Aeroporto :
LOGIN :

Iscrizione | Disclaimer

   EN    FR    IT 

 










Sommario :    VFR   VFR Marginale   IFR   IFR Intensivo   IFR Molto Intensivo
Visibilità : 
Base nubi : 
>= 8 km
>= 3000ft
5 / 8 km
1000 / 3000 ft
1500m / 5 km
500 / 1000 ft
800 / 1500m
200 / 500 ft
< 800m
< 200 ft
Simboli :   Temporali  Nebbia  Neve Forte  Precipitazioni Forti  Vento > 20 kt
SIGMETs :   Varie  Temporali  Ghiacco  Turbolenza  Onda orograficha  Ceneri Vulcaniche






- Altitudine del aeroporto : 245 ft
- Codice IATA : BIQ


LFBZ - Biarritz

ULTIMO METAR :
  • 131000Z AUTO VRB02KT 9999 FEW008 SCT041 BKN064 11/10 Q1011 TEMPO 4000 -RA OVC010

METARs OBSOLETI :
  • 130900Z AUTO 00000KT 9999 FEW007 SCT042 BKN048 10/10 Q1011 TEMPO 4000 -RA OVC010 BECMG 30010KT
  • 130830Z AUTO 00000KT 9999 BKN052 BKN150 OVC170 10/10 Q1010 TEMPO 4000 -RA OVC010 BECMG 30010KT
  • 130800Z AUTO VRB02KT 9999 FEW006 SCT047 BKN150 10/10 Q1010 TEMPO 4000 -RA OVC010
  • 130730Z AUTO VRB03KT 9999 BKN006 BKN042 BKN072 09/09 Q1009 TEMPO 4000 -RA OVC010

TAF TAF LFBZ
Valido dal 13 a 06 ore il 14 a 06 ore UTC


130500Z 1306/1406 VRB03KT 9999 BKN030
TEMPO 1306/1312 4000 -RA OVC010
PROB30
TEMPO 1306/1309 2000 -DZ BR OVC002
BECMG 1310/1312 30010KT
PROB40
TEMPO 1312/1318 28015G25KT 4000 -SHRA BKN020TCU
TEMPO 1318/1406 4000 RA OVC008
PROB40 1400/1406 26020G35KT



MetMap, La meteo Aeronautica in un colpo d'occhio ! - Copyright ORBIFLY Dicembre 2007 - Disclaimer

ORBIFLY MET'MAP TEAM :

Programmazione e sviluppo : Alexandra Zaïnal
Concezione e sviluppo : Baudouin d'Aumeries
Co-Programmazione e sviluppo : Marc-Olivier Méhu
Supporto tecnico e logistico : Manuel Goepfert
Aiuto per la traduzione : Arnaldo La Scala

Contatto : metmap@orbifly.com




FONTI E CREDITI :

   NOAA